M I D A S
Marine Information and Data Acquisition System
Tripno 1551 of the Zeeleeuw from 2008-04-17 07:09:46 to 2008-04-17 12:08:12
Back to CruiseResearch ActivitiesStationsMapUnderway DataData graphs

EquipmentUnitsComment
TimeDGPSUTC
LatitudeDGPSDM.mWGS84
LongitudeDGPSDM.mWGS84
TemperatureSBE03/SBE38deg celciusITS90
ConductivitySBE21S/mITS90
SalinitySBE21 Practical Salinity Units
ChlorophylAChelsea fluorimeterg/lCalibrated in Aceton
Missing or incorrect values are displayed as -999
Sea surface data collected by the RV Zeeleeuw from 2008-04-17 07:09:16 to 2008-04-17 12:17:56
Time Latitude Longitude Temperature Conductivity Salinity ChlorophylA
2008-04-17 07:10:21 51°13.667 2°55.947 16.7758 0.008661 0.048756 -1.766697
2008-04-17 07:11:21 51°13.686 2°55.855 16.8558 0.008661 0.048758 -1.766697
2008-04-17 07:12:21 51°13.7 2°55.774 16.96 0.008661 0.048762 -1.801521
2008-04-17 07:13:21 51°13.691 2°55.748 16.8451 0.008661 0.048766 -1.801521
2008-04-17 07:14:21 51°13.717 2°55.73 16.7583 0.008661 0.048771 -1.801521
2008-04-17 07:15:21 51°13.776 2°55.678 16.6806 0.008661 0.048771 -1.801521
2008-04-17 07:16:21 51°13.852 2°55.618 16.7723 0.008661 0.048775 -1.801521
2008-04-17 07:17:21 51°13.936 2°55.554 16.7469 0.008661 0.048779 -1.801521
2008-04-17 07:18:21 51°14.011 2°55.5 16.782 0.008661 0.048783 -1.766697
2008-04-17 07:19:21 51°14.083 2°55.442 16.8569 0.008661 0.048786 -1.801521
2008-04-17 07:20:21 51°14.17 2°55.368 16.8286 0.008661 0.04879 -1.801521
2008-04-17 07:21:21 51°14.273 2°55.23 16.6848 0.008661 0.048793 -1.801521
2008-04-17 07:22:21 51°14.361 2°55.052 16.5695 0.008763 0.049308 -1.801521
2008-04-17 07:23:21 51°14.463 2°54.869 16.6228 0.008763 0.049312 -1.801521
2008-04-17 07:24:21 51°14.591 2°54.712 16.5392 0.008763 0.049317 -1.801521
2008-04-17 07:25:21 51°14.721 2°54.551 16.5469 0.008763 0.04932 -1.801521
2008-04-17 07:26:21 51°14.852 2°54.392 16.517 0.008763 0.049325 -1.801521
2008-04-17 07:27:21 51°14.979 2°54.231 16.4383 0.008763 0.049329 -1.801521
2008-04-17 07:28:21 51°15.116 2°54.102 12.0122 1.684435 11.157613 -1.801521
2008-04-17 07:29:21 51°15.259 2°53.996 9.0645 3.354551 29.993676 69.552965
2008-04-17 07:30:20 51°15.397 2°53.871 8.8228 3.246241 29.842146 69.552965
2008-04-17 07:31:21 51°15.539 2°53.739 8.7684 3.230607 29.855037 69.552965
2008-04-17 07:32:20 51°15.675 2°53.615 8.7302 3.228227 29.891467 69.552965
2008-04-17 07:33:21 51°15.816 2°53.489 8.7219 3.246969 30.108191 69.518141
2008-04-17 07:34:21 51°15.971 2°53.359 8.6942 3.257945 30.25177 69.552965
2008-04-17 07:35:21 51°16.153 2°53.237 8.6445 3.253389 30.24199 69.552965
2008-04-17 07:36:21 51°16.33 2°53.093 8.6247 3.245106 30.195341 69.622613
2008-04-17 07:37:21 51°16.497 2°52.929 8.6568 3.2595 30.354557 69.587789
2008-04-17 07:38:21 51°16.588 2°52.78 8.6589 3.299161 30.743481 69.552965
2008-04-17 07:39:21 51°16.666 2°52.632 8.6601 3.312209 30.876664 69.587789
2008-04-17 07:40:21 51°16.748 2°52.478 8.647 3.31832 30.951679 69.587789
2008-04-17 07:41:21 51°16.829 2°52.326 8.6503 3.319563 30.973251 69.552965
2008-04-17 07:42:21 51°16.893 2°52.208 8.6385 3.329091 31.078168 69.518141
2008-04-17 07:43:21 51°16.951 2°52.089 8.6434 3.336133 31.154245 69.518141
2008-04-17 07:44:21 51°17.022 2°51.993 8.649 3.34504 31.247266 69.518141
2008-04-17 07:45:21 51°17.106 2°51.969 8.6379 3.352186 31.326105 69.518141
2008-04-17 07:46:21 51°17.174 2°51.96 8.6225 3.357883 31.386743 69.518141
2008-04-17 07:47:21 51°17.217 2°51.985 8.629 3.362129 31.429148 69.552965
2008-04-17 07:48:20 51°17.245 2°52.024 8.6327 3.364097 31.443905 69.518141
2008-04-17 07:49:21 51°17.287 2°52.066 8.6312 3.364615 31.452498 69.518141
2008-04-17 07:50:21 51°17.316 2°52.122 8.6321 3.365547 31.462161 69.518141
2008-04-17 07:51:21 51°17.323 2°52.141 8.6451 3.365651 31.460009 69.518141
2008-04-17 07:52:21 51°17.317 2°52.134 8.6259 3.366686 31.464293 69.518141
2008-04-17 07:53:21 51°17.308 2°52.116 8.6288 3.366272 31.46887 69.518141
2008-04-17 07:54:21 51°17.304 2°52.097 8.627 3.365547 31.470228 69.518141
2008-04-17 07:55:21 51°17.317 2°52.124 8.6252 3.365029 31.464858 69.518141
2008-04-17 07:56:21 51°17.32 2°52.148 8.6248 3.36389 31.458692 69.518141
2008-04-17 07:57:21 51°17.32 2°52.148 8.6213 3.363165 31.453593 69.518141
2008-04-17 07:58:21 51°17.319 2°52.138 8.619 3.36213 31.447691 69.518141
2008-04-17 07:59:21 51°17.316 2°52.126 8.6147 3.361301 31.444744 69.518141
2008-04-17 08:00:21 51°17.314 2°52.115 8.6125 3.360783 31.440179 69.518141
2008-04-17 08:01:21 51°17.316 2°52.116 8.605 3.360887 31.443674 69.518141
2008-04-17 08:02:21 51°17.315 2°52.117 8.6005 3.359644 31.438041 69.518141
2008-04-17 08:03:21 51°17.313 2°52.116 8.5972 3.357469 31.413861 69.518141
2008-04-17 08:04:21 51°17.312 2°52.116 8.5986 3.359023 31.433206 69.518141
2008-04-17 08:05:21 51°17.311 2°52.128 8.592 3.357158 31.421928 69.518141
2008-04-17 08:06:21 51°17.31 2°52.15 8.5881 3.358816 31.439934 69.518141
2008-04-17 08:07:21 51°17.315 2°52.168 8.603 3.357573 31.430263 69.518141
2008-04-17 08:08:21 51°17.321 2°52.17 8.5989 3.358712 31.434017 69.518141
2008-04-17 08:09:21 51°17.324 2°52.166 8.5877 3.357469 31.425153 69.518141
2008-04-17 08:10:21 51°17.323 2°52.158 8.5896 3.357158 31.427577 69.518141
2008-04-17 08:11:21 51°17.322 2°52.148 8.591 3.357573 31.43107 69.518141
2008-04-17 08:12:21 51°17.319 2°52.136 8.5932 3.357262 31.427845 69.518141
2008-04-17 08:13:21 51°17.317 2°52.121 8.5961 3.357469 31.427574 69.518141
2008-04-17 08:14:21 51°17.326 2°52.136 8.581 3.357262 31.42381 69.518141
2008-04-17 08:15:21 51°17.319 2°52.17 8.5794 3.354362 31.406617 69.518141
2008-04-17 08:16:21 51°17.29 2°52.195 8.5876 3.353534 31.405276 69.518141
2008-04-17 08:17:21 51°17.229 2°52.17 8.5911 3.355709 31.418981 69.518141
2008-04-17 08:18:21 51°17.166 2°52.108 8.6026 3.357366 31.429727 69.518141
2008-04-17 08:19:21 51°17.116 2°52.07 8.6094 3.358816 31.435899 69.518141
2008-04-17 08:20:21 51°17.077 2°52.036 8.6147 3.360265 31.446911 69.518141
2008-04-17 08:21:21 51°17.045 2°51.991 8.6191 3.36099 31.450398 69.518141
2008-04-17 08:22:21 51°17.01 2°51.933 8.6165 3.362751 31.468668 69.518141
2008-04-17 08:23:21 51°16.971 2°51.877 8.6202 3.362958 31.471626 69.518141
2008-04-17 08:24:20 51°16.932 2°51.818 8.6187 3.364305 31.478328 69.518141
2008-04-17 08:25:20 51°16.892 2°51.758 8.6255 3.365962 31.497947 69.483317
2008-04-17 08:26:20 51°16.853 2°51.697 8.6185 3.366687 31.503046 69.518141
2008-04-17 08:27:20 51°16.814 2°51.639 8.6211 3.365444 31.493382 69.518141
2008-04-17 08:28:20 51°16.776 2°51.582 8.6245 3.365755 31.494181 69.483317
2008-04-17 08:29:20 51°16.738 2°51.522 8.6253 3.366583 31.498738 69.518141
2008-04-17 08:30:20 51°16.7 2°51.463 8.6302 3.366687 31.497388 69.518141
2008-04-17 08:31:20 51°16.663 2°51.404 8.63 3.366998 31.498996 69.483317
2008-04-17 08:32:20 51°16.637 2°51.342 8.6342 3.368862 31.518338 69.483317
2008-04-17 08:33:20 51°16.632 2°51.278 8.6367 3.36969 31.521275 69.483317
2008-04-17 08:34:20 51°16.642 2°51.222 8.6421 3.369794 31.520732 69.518141
2008-04-17 08:35:20 51°16.651 2°51.19 8.6338 3.369587 31.5202 69.518141
2008-04-17 08:36:20 51°16.656 2°51.173 8.6306 3.368033 31.506508 69.518141
2008-04-17 08:37:20 51°16.658 2°51.163 8.6275 3.366894 31.495497 69.518141
2008-04-17 08:38:20 51°16.669 2°51.152 8.6246 3.365651 31.486643 69.518141
2008-04-17 08:39:20 51°16.697 2°51.156 8.6181 3.365548 31.4888 69.518141
2008-04-17 08:40:21 51°16.74 2°51.172 8.6165 3.364305 31.480751 69.518141
2008-04-17 08:41:21 51°16.793 2°51.192 8.6191 3.363994 31.476719 69.518141
2008-04-17 08:42:21 51°16.85 2°51.212 8.6239 3.364408 31.481018 69.518141
2008-04-17 08:43:21 51°16.908 2°51.234 8.6326 3.365962 31.489058 69.518141
2008-04-17 08:44:21 51°16.967 2°51.258 8.6273 3.36679 31.497655 69.518141
2008-04-17 08:45:21 51°17.025 2°51.279 8.6352 3.366894 31.497921 69.518141
2008-04-17 08:46:21 51°17.084 2°51.297 8.6362 3.367619 31.498978 69.518141
2008-04-17 08:47:21 51°17.142 2°51.318 8.647 3.370415 31.52637 69.518141
2008-04-17 08:48:21 51°17.202 2°51.339 8.6497 3.37083 31.5242 69.518141
2008-04-17 08:49:21 51°17.261 2°51.363 8.6631 3.372798 31.541376 69.518141
2008-04-17 08:50:21 51°17.32 2°51.383 8.6598 3.374455 31.551284 69.518141
2008-04-17 08:51:21 51°17.378 2°51.404 8.6631 3.385952 31.67216 69.483317
2008-04-17 08:52:21 51°17.436 2°51.422 8.6561 3.382119 31.629157 69.518141
2008-04-17 08:53:21 51°17.494 2°51.445 8.6418 3.377769 31.588896 69.518141
2008-04-17 08:54:21 51°17.552 2°51.468 8.647 3.387298 31.698321 69.483317
2008-04-17 08:55:21 51°17.609 2°51.49 8.657 3.392581 31.747463 69.483317
2008-04-17 08:56:21 51°17.667 2°51.512 8.6583 3.398381 31.808501 69.483317
2008-04-17 08:57:21 51°17.726 2°51.535 8.675 3.404285 31.85838 69.483317
2008-04-17 08:58:21 51°17.785 2°51.557 8.6762 3.408532 31.894304 69.483317
2008-04-17 08:59:21 51°17.843 2°51.576 8.6772 3.408428 31.888326 69.483317
2008-04-17 09:00:21 51°17.901 2°51.595 8.6737 3.405735 31.86282 69.518141
2008-04-17 09:01:21 51°17.959 2°51.614 8.6686 3.399417 31.802132 69.518141
2008-04-17 09:02:21 51°18.017 2°51.633 8.6723 3.397967 31.787082 69.518141
2008-04-17 09:03:21 51°18.075 2°51.652 8.6758 3.398278 31.787863 69.518141
2008-04-17 09:04:21 51°18.131 2°51.671 8.6662 3.394341 31.74702 69.518141
2008-04-17 09:05:21 51°18.188 2°51.692 8.6644 3.391027 31.721574 69.518141
2008-04-17 09:06:21 51°18.244 2°51.712 8.6554 3.392581 31.741766 69.518141
2008-04-17 09:07:21 51°18.3 2°51.731 8.6596 3.392995 31.747694 69.518141
2008-04-17 09:08:21 51°18.355 2°51.746 8.6643 3.396828 31.783403 69.518141
2008-04-17 09:09:21 51°18.41 2°51.752 8.6666 3.405528 31.869653 69.518141
2008-04-17 09:10:21 51°18.45 2°51.752 8.6694 3.406564 31.879591 69.518141
2008-04-17 09:11:21 51°18.479 2°51.748 8.6717 3.404389 31.855373 69.518141
2008-04-17 09:12:21 51°18.5 2°51.743 8.6731 3.39807 31.785713 69.518141
2008-04-17 09:13:21 51°18.517 2°51.738 8.669 3.399521 31.805652 69.518141
2008-04-17 09:14:21 51°18.534 2°51.735 8.6694 3.398692 31.798682 69.518141
2008-04-17 09:15:21 51°18.549 2°51.735 8.6713 3.399624 31.806728 69.518141
2008-04-17 09:16:21 51°18.565 2°51.738 8.6751 3.399935 31.804247 69.518141
2008-04-17 09:17:21 51°18.579 2°51.741 8.6595 3.399831 31.808878 69.518141
2008-04-17 09:18:21 51°18.592 2°51.743 8.6468 3.392374 31.742057 69.518141
2008-04-17 09:19:21 51°18.605 2°51.745 8.6373 3.389577 31.72279 69.518141
2008-04-17 09:20:21 51°18.619 2°51.746 8.6357 3.387506 31.706977 69.518141
2008-04-17 09:21:21 51°18.634 2°51.747 8.6324 3.387298 31.707266 69.518141
2008-04-17 09:22:21 51°18.65 2°51.749 8.6279 3.386159 31.697062 69.518141
2008-04-17 09:23:21 51°18.665 2°51.749 8.6298 3.385538 31.693049 69.518141
2008-04-17 09:24:21 51°18.682 2°51.75 8.6263 3.384502 31.68392 69.518141
2008-04-17 09:25:21 51°18.699 2°51.753 8.6246 3.381187 31.651942 69.518141
2008-04-17 09:26:21 51°18.717 2°51.757 8.617 3.378909 31.629906 69.518141
2008-04-17 09:27:21 51°18.735 2°51.766 8.6114 3.378184 31.629684 69.518141
2008-04-17 09:28:21 51°18.754 2°51.775 8.6081 3.377045 31.620287 69.518141
2008-04-17 09:29:21 51°18.774 2°51.785 8.6121 3.374766 31.597436 69.518141
2008-04-17 09:30:21 51°18.794 2°51.793 8.6122 3.377459 31.625402 69.518141
2008-04-17 09:31:21 51°18.815 2°51.8 8.6139 3.375802 31.60738 69.518141
2008-04-17 09:32:21 51°18.836 2°51.807 8.62 3.375802 31.604946 69.518141
2008-04-17 09:33:21 51°18.854 2°51.812 8.6258 3.379841 31.639585 69.518141
2008-04-17 09:34:21 51°18.875 2°51.815 8.6342 3.38212 31.655935 69.518141
2008-04-17 09:35:21 51°18.897 2°51.815 8.6333 3.38243 31.66241 69.518141
2008-04-17 09:36:21 51°18.919 2°51.815 8.6414 3.38388 31.671778 69.518141
2008-04-17 09:37:21 51°18.943 2°51.818 8.6459 3.385641 31.682744 69.518141
2008-04-17 09:38:21 51°18.967 2°51.822 8.6481 3.386677 31.688619 69.518141
2008-04-17 09:39:21 51°18.987 2°51.824 8.6379 3.387091 31.695358 69.518141
2008-04-17 09:40:21 51°19.007 2°51.828 8.6343 3.386677 31.697561 69.518141
2008-04-17 09:41:21 51°19.028 2°51.828 8.6374 3.386056 31.695174 69.518141
2008-04-17 09:42:21 51°19.047 2°51.83 8.6444 3.385952 31.687595 69.518141
2008-04-17 09:43:21 51°19.066 2°51.829 8.6312 3.385434 31.680594 69.518141
2008-04-17 09:44:21 51°19.085 2°51.828 8.6355 3.383984 31.672041 69.518141
2008-04-17 09:45:21 51°19.105 2°51.83 8.6349 3.383777 31.66989 69.518141
2008-04-17 09:46:21 51°19.129 2°51.834 8.6372 3.38357 31.66774 69.518141
2008-04-17 09:47:21 51°19.154 2°51.838 8.6402 3.383155 31.661814 69.518141
2008-04-17 09:48:21 51°19.181 2°51.844 8.6379 3.382845 31.659401 69.518141
2008-04-17 09:49:21 51°19.207 2°51.851 8.6403 3.382223 31.652138 69.518141
2008-04-17 09:50:21 51°19.233 2°51.858 8.6477 3.381912 31.641607 69.518141
2008-04-17 09:51:21 51°19.258 2°51.866 8.6435 3.381912 31.644042 69.518141
2008-04-17 09:52:21 51°19.281 2°51.87 8.6483 3.381912 31.639173 69.518141
2008-04-17 09:53:21 51°19.303 2°51.872 8.6473 3.381602 31.635138 69.518141
2008-04-17 09:54:21 51°19.32 2°51.872 8.6573 3.380876 31.625182 69.518141
2008-04-17 09:55:21 51°19.341 2°51.873 8.6552 3.382326 31.636982 69.518141
2008-04-17 09:56:21 51°19.368 2°51.876 8.6533 3.381291 31.628669 69.552965
2008-04-17 09:57:21 51°19.398 2°51.889 8.6549 3.381601 31.632704 69.518141
2008-04-17 09:58:21 51°19.428 2°51.913 8.6533 3.381394 31.627311 69.518141
2008-04-17 09:59:21 51°19.457 2°51.95 8.6559 3.380048 31.614964 69.518141
2008-04-17 10:00:21 51°19.485 2°51.994 8.6633 3.379841 31.613625 69.518141
2008-04-17 10:01:21 51°19.514 2°52.039 8.6593 3.378391 31.595342 69.518141
2008-04-17 10:02:21 51°19.543 2°52.082 8.6647 3.380255 31.61225 69.552965
2008-04-17 10:03:21 51°19.572 2°52.124 8.6657 3.380669 31.614116 69.518141
2008-04-17 10:04:21 51°19.602 2°52.166 8.6682 3.38098 31.61896 69.518141
2008-04-17 10:05:21 51°19.634 2°52.211 8.6682 3.383362 31.639617 69.552965
2008-04-17 10:06:21 51°19.664 2°52.257 8.6736 3.384502 31.650624 69.518141
2008-04-17 10:07:21 51°19.696 2°52.3 8.6783 3.385952 31.659987 69.552965
2008-04-17 10:08:21 51°19.727 2°52.343 8.6848 3.386677 31.66345 69.518141
2008-04-17 10:09:21 51°19.755 2°52.386 8.6843 3.386573 31.661565 69.518141
2008-04-17 10:10:21 51°19.784 2°52.428 8.6876 3.388541 31.681163 69.518141
2008-04-17 10:11:21 51°19.815 2°52.464 8.6876 3.387402 31.665291 69.518141
2008-04-17 10:12:21 51°19.846 2°52.508 8.691 3.388437 31.672786 69.518141
2008-04-17 10:13:21 51°19.872 2°52.556 8.6979 3.391855 31.704169 69.518141
2008-04-17 10:14:21 51°19.896 2°52.603 8.6856 3.393409 31.718655 69.518141
2008-04-17 10:15:21 51°19.924 2°52.641 8.6965 3.393616 31.727303 69.518141
2008-04-17 10:16:21 51°19.956 2°52.677 8.6897 3.394238 31.737 69.518141
2008-04-17 10:17:21 51°19.987 2°52.717 8.6952 3.39517 31.739352 69.518141
2008-04-17 10:18:21 51°20.015 2°52.76 8.7101 3.395688 31.74391 69.518141
2008-04-17 10:19:21 51°20.041 2°52.803 8.6986 3.397034 31.749744 69.518141
2008-04-17 10:20:21 51°20.068 2°52.851 8.7012 3.397138 31.75895 69.518141
2008-04-17 10:21:21 51°20.097 2°52.899 8.6938 3.39662 31.751952 69.518141
2008-04-17 10:22:21 51°20.127 2°52.95 8.6839 3.396102 31.753086 69.518141
2008-04-17 10:23:21 51°20.158 2°52.992 8.7107 3.396309 31.754422 69.483317
2008-04-17 10:24:21 51°20.185 2°53.03 8.7029 3.398484 31.763154 69.518141
2008-04-17 10:25:21 51°20.196 2°53.072 8.6945 3.398277 31.770767 69.483317
2008-04-17 10:26:21 51°20.183 2°53.113 8.7048 3.39807 31.769432 69.483317
2008-04-17 10:27:21 51°20.139 2°53.102 8.7046 3.399106 31.768785 69.483317
2008-04-17 10:28:21 51°20.071 2°53.052 8.7059 3.398795 31.768003 69.518141
2008-04-17 10:29:21 51°19.997 2°52.982 8.7033 3.395998 31.735755 69.483317
2008-04-17 10:30:21 51°19.928 2°52.894 8.6931 3.390198 31.68374 69.483317
2008-04-17 10:31:21 51°19.858 2°52.809 8.6935 3.387194 31.659899 69.483317
2008-04-17 10:32:21 51°19.788 2°52.723 8.6821 3.386676 31.657773 69.483317
2008-04-17 10:33:21 51°19.719 2°52.636 8.6735 3.383673 31.632301 69.483317
2008-04-17 10:34:21 51°19.648 2°52.552 8.6669 3.379841 31.602282 69.483317
2008-04-17 10:35:21 51°19.579 2°52.466 8.6615 3.377355 31.579741 69.483317
2008-04-17 10:36:21 51°19.509 2°52.38 8.6602 3.37663 31.578697 69.448492
2008-04-17 10:37:21 51°19.439 2°52.296 8.656 3.376216 31.577638 69.448492
2008-04-17 10:38:21 51°19.37 2°52.21 8.661 3.37404 31.553458 69.448492
2008-04-17 10:39:21 51°19.32 2°52.156 8.6657 3.373108 31.541364 69.483317
2008-04-17 10:40:21 51°19.292 2°52.128 8.6634 3.372901 31.531133 69.483317
2008-04-17 10:41:21 51°19.285 2°52.091 8.6589 3.373419 31.538927 69.448492
2008-04-17 10:42:21 51°19.29 2°52.074 8.669 3.373315 31.53947 69.483317
2008-04-17 10:43:21 51°19.303 2°52.068 8.6668 3.373937 31.536214 69.483317
2008-04-17 10:44:21 51°19.317 2°52.068 8.6705 3.375283 31.553407 69.448492
2008-04-17 10:45:21 51°19.327 2°52.074 8.6793 3.375905 31.552573 69.483317
2008-04-17 10:46:21 51°19.332 2°52.08 8.6742 3.376319 31.556059 69.448492
2008-04-17 10:47:21 51°19.335 2°52.091 8.6749 3.375283 31.546939 69.448492
2008-04-17 10:48:21 51°19.338 2°52.104 8.6754 3.375697 31.551234 69.448492
2008-04-17 10:49:21 51°19.342 2°52.117 8.6753 3.376526 31.560632 69.448492
2008-04-17 10:50:21 51°19.373 2°52.106 8.6816 3.37694 31.561692 69.448492
2008-04-17 10:51:21 51°19.438 2°52.167 8.6779 3.37808 31.569459 69.483317
2008-04-17 10:52:21 51°19.416 2°52.269 8.6806 3.378287 31.572415 69.483317
2008-04-17 10:53:21 51°19.359 2°52.218 8.6778 3.377769 31.567047 69.483317
2008-04-17 10:54:21 51°19.297 2°52.134 8.6791 3.379115 31.583431 69.483317
2008-04-17 10:55:21 51°19.267 2°52.102 8.6866 3.380048 31.594714 69.483317
2008-04-17 10:56:21 51°19.269 2°52.089 8.693 3.380669 31.592254 69.483317
2008-04-17 10:57:21 51°19.275 2°52.074 8.687 3.380151 31.587695 69.483317
2008-04-17 10:58:21 51°19.285 2°52.06 8.6947 3.38243 31.606458 69.483317
2008-04-17 10:59:21 51°19.298 2°52.052 8.7027 3.383983 31.618512 69.483317
2008-04-17 11:00:21 51°19.311 2°52.05 8.7065 3.384915 31.622506 69.483317
2008-04-17 11:01:21 51°19.326 2°52.051 8.7227 3.386262 31.627553 69.483317
2008-04-17 11:02:21 51°19.338 2°52.055 8.7309 3.388022 31.632035 69.518141
2008-04-17 11:03:21 51°19.347 2°52.059 8.7254 3.388644 31.637662 69.483317
2008-04-17 11:04:21 51°19.354 2°52.066 8.7217 3.385433 31.608453 69.483317
2008-04-17 11:05:21 51°19.361 2°52.071 8.7232 3.38823 31.639036 69.483317
2008-04-17 11:06:21 51°19.376 2°52.029 8.7288 3.389058 31.646809 69.483317
2008-04-17 11:07:21 51°19.342 2°51.962 8.7372 3.394237 31.695594 69.483317
2008-04-17 11:08:21 51°19.308 2°51.894 8.7431 3.398691 31.735243 69.448492
2008-04-17 11:09:21 51°19.276 2°51.839 8.7583 3.402627 31.766271 69.448492
2008-04-17 11:10:21 51°19.247 2°51.786 8.7621 3.406045 31.794362 69.448492
2008-04-17 11:11:21 51°19.22 2°51.733 8.7591 3.409981 31.832691 69.448492
2008-04-17 11:12:21 51°19.191 2°51.674 8.7597 3.411432 31.849339 69.448492
2008-04-17 11:13:21 51°19.16 2°51.614 8.7724 3.413089 31.865694 69.448492
2008-04-17 11:14:21 51°19.13 2°51.552 8.7647 3.415264 31.88497 69.448492
2008-04-17 11:15:21 51°19.1 2°51.489 8.7693 3.415057 31.882009 69.448492
2008-04-17 11:16:21 51°19.069 2°51.426 8.7785 3.418889 31.91519 69.448492
2008-04-17 11:17:21 51°19.037 2°51.364 8.7822 3.422101 31.943558 69.448492
2008-04-17 11:18:21 51°19.005 2°51.302 8.7966 3.426348 31.98102 69.448492
2008-04-17 11:19:21 51°18.975 2°51.24 8.8087 3.431734 32.025371 69.448492
2008-04-17 11:20:21 51°18.945 2°51.178 8.8239 3.43681 32.065669 69.413668
2008-04-17 11:21:21 51°18.913 2°51.115 8.8466 3.444061 32.126014 69.413668
2008-04-17 11:22:21 51°18.883 2°51.054 8.8621 3.45442 32.213578 69.413668
2008-04-17 11:23:21 51°18.866 2°50.984 8.8709 3.459807 32.260306 69.413668
2008-04-17 11:24:21 51°18.892 2°50.916 8.9075 3.463432 32.283035 69.413668
2008-04-17 11:25:21 51°18.942 2°50.873 8.9475 3.483529 32.444015 69.413668
2008-04-17 11:26:21 51°18.982 2°50.856 8.9584 3.492957 32.519216 69.413668
2008-04-17 11:27:21 51°19.007 2°50.851 8.9611 3.493786 32.522001 69.448492
2008-04-17 11:28:21 51°19.024 2°50.851 8.9686 3.493578 32.516554 69.448492
2008-04-17 11:29:21 51°19.034 2°50.85 8.9679 3.493785 32.51374 69.413668
2008-04-17 11:30:21 51°19.04 2°50.853 8.969 3.493889 32.513985 69.413668
2008-04-17 11:31:21 51°19.045 2°50.856 8.9688 3.494096 32.516127 69.413668
2008-04-17 11:32:21 51°19.05 2°50.861 8.9698 3.494303 32.516617 69.448492
2008-04-17 11:33:21 51°19.062 2°50.838 8.9741 3.494614 32.517351 69.413668
2008-04-17 11:34:21 51°19.046 2°50.785 8.9798 3.493889 32.511508 69.448492
2008-04-17 11:35:21 51°18.984 2°50.796 8.9874 3.495547 32.517904 69.448492
2008-04-17 11:36:21 51°18.898 2°50.815 8.9956 3.500312 32.55971 69.483317
2008-04-17 11:37:21 51°18.777 2°50.84 8.9381 3.502799 32.586229 69.448492
2008-04-17 11:38:21 51°18.641 2°50.9 8.8995 3.482908 32.440886 69.448492
2008-04-17 11:39:21 51°18.492 2°50.963 8.8704 3.469544 32.343826 69.413668
2008-04-17 11:40:21 51°18.343 2°51.022 8.8425 3.46364 32.302458 69.413668
2008-04-17 11:41:21 51°18.195 2°51.084 8.8301 3.458874 32.274507 69.413668
2008-04-17 11:42:21 51°18.045 2°51.144 8.8365 3.46364 32.323054 69.413668
2008-04-17 11:43:21 51°17.894 2°51.198 8.8742 3.46768 32.362443 69.413668
2008-04-17 11:44:21 51°17.746 2°51.275 8.9266 3.486949 32.515766 69.413668
2008-04-17 11:45:21 51°17.6 2°51.362 8.997 3.513988 32.735956 69.448492
2008-04-17 11:46:21 51°17.461 2°51.47 9.0302 3.533155 32.887611 69.448492
2008-04-17 11:47:21 51°17.322 2°51.58 9.0739 3.542791 32.952182 69.448492
2008-04-17 11:48:21 51°17.181 2°51.686 9.0283 3.542376 32.942053 69.413668
2008-04-17 11:49:21 51°17.039 2°51.791 9.0141 3.530876 32.852364 69.413668
2008-04-17 11:50:21 51°16.902 2°51.912 9.0673 3.521966 32.767741 69.413668
2008-04-17 11:51:21 51°16.775 2°52.06 9.1101 3.487983 32.351087 69.448492
2008-04-17 11:52:21 51°16.647 2°52.21 9.1065 3.479487 32.24728 69.448492
2008-04-17 11:53:21 51°16.518 2°52.363 9.132 3.478658 32.239566 69.448492
2008-04-17 11:54:21 51°16.392 2°52.524 9.1333 3.480834 32.237493 69.448492
2008-04-17 11:55:21 51°16.266 2°52.686 9.1037 3.485392 32.291722 69.448492
2008-04-17 11:56:21 51°16.142 2°52.845 9.1544 3.488293 32.337919 69.448492
2008-04-17 11:57:21 51°16.016 2°53.004 9.1371 3.481559 32.222963 69.413668
2008-04-17 11:58:21 51°15.887 2°53.168 9.1215 3.471406 32.152752 69.413668
2008-04-17 11:59:21 51°15.734 2°53.356 9.1435 3.461047 32.041382 69.413668
2008-04-17 12:00:21 51°15.571 2°53.551 9.105 3.451412 31.935126 69.413668
2008-04-17 12:01:21 51°15.408 2°53.742 9.0706 3.433181 31.776861 69.413668
2008-04-17 12:02:21 51°15.242 2°53.926 9.0676 3.419819 31.665277 69.413668
2008-04-17 12:03:21 51°15.078 2°54.116 9.0443 3.413603 31.580648 69.413668
2008-04-17 12:04:21 51°14.912 2°54.309 9.0733 3.402727 31.510493 69.413668
2008-04-17 12:05:21 51°14.75 2°54.509 9.213 3.45276 31.983715 69.413668
2008-04-17 12:06:21 51°14.593 2°54.696 9.1432 3.497513 32.358388 69.413668
2008-04-17 12:07:21 51°14.46 2°54.875 9.1542 3.472132 32.173225 69.413668
2008-04-17 12:08:21 51°14.359 2°55.047 9.1957 3.411323 31.426914 69.413668
2008-04-17 12:09:21 51°14.268 2°55.223 9.2939 3.205133 29.316132 69.413668
2008-04-17 12:10:21 51°14.153 2°55.38 9.2311 3.154919 28.823747 69.413668
2008-04-17 12:11:21 51°14.034 2°55.479 9.5188 0.616397 4.906945 0.462042
2008-04-17 12:12:21 51°13.937 2°55.549 9.6502 1.308105 11.027617 0.218274
2008-04-17 12:13:21 51°13.845 2°55.614 9.8312 1.383092 11.713447 0.218274
2008-04-17 12:14:21 51°13.769 2°55.698 10.0634 1.507716 12.859358 0.392394
2008-04-17 12:15:21 51°13.71 2°55.8 10.2835 1.405786 11.914652 0.322746
2008-04-17 12:16:21 51°13.673 2°55.896 10.4617 1.472637 12.526634 0.287922
2008-04-17 12:17:21 51°13.664 2°55.95 10.6416 1.395986 11.816964 0.322746